Time;durP1;ratioP1;P1;durP2;ratioP2;P2;SDS_P1;SDS_P2;PMS_P1;PMS_P2;Temp;Humidity;BMP_temperature;BMP_pressure;BME280_temperature;BME280_humidity;BME280_pressure;Samples;Min_cycle;Max_cycle;Signal;HPM_P1;HPM_P2
2023/04/02 00:00:18;;;;;;;18.48;12.70;;;;;;;5.71;100.00;101037.13;5012880;28;20037;-82
2023/04/02 00:02:52;;;;;;;18.30;12.80;;;;;;;5.70;100.00;101040.59;4999142;28;20029;-82
2023/04/02 00:05:29;;;;;;;21.00;13.07;;;;;;;5.72;100.00;101051.81;5009801;28;20109;-82
2023/04/02 00:08:17;;;;;;;20.35;12.85;;;;;;;5.74;100.00;101055.25;5012886;28;20147;-82
2023/04/02 00:10:50;;;;;;;18.67;12.05;;;;;;;5.69;100.00;101059.56;5008869;28;20052;-83
2023/04/02 00:13:16;;;;;;;18.33;12.43;;;;;;;5.70;100.00;101069.06;5013121;28;20022;-83
2023/04/02 00:15:45;;;;;;;18.95;12.35;;;;;;;5.70;100.00;101069.06;5012918;28;20049;-82
2023/04/02 00:18:16;;;;;;;19.85;12.68;;;;;;;5.71;100.00;101073.34;5012544;28;20025;-83
2023/04/02 00:20:46;;;;;;;17.73;12.88;;;;;;;5.63;100.00;101069.91;5012454;28;20521;-82
2023/04/02 00:23:13;;;;;;;17.08;12.02;;;;;;;5.65;100.00;101078.53;5012822;28;20057;-83
2023/04/02 00:25:44;;;;;;;18.52;12.80;;;;;;;5.64;100.00;101084.56;5012759;28;20022;-82
2023/04/02 00:28:16;;;;;;;19.98;12.70;;;;;;;5.70;100.00;101083.72;4999761;28;20026;-83
2023/04/02 00:30:52;;;;;;;17.87;12.43;;;;;;;5.56;100.00;101068.19;5012515;28;20045;-83
2023/04/02 00:33:21;;;;;;;20.10;13.68;;;;;;;5.63;100.00;101080.25;4999161;28;20108;-82
2023/04/02 00:35:49;;;;;;;23.50;15.00;;;;;;;5.57;100.00;101083.69;5012457;28;20064;-82
2023/04/02 00:38:33;;;;;;;23.23;15.55;;;;;;;5.55;100.00;101095.75;5012639;28;20026;-83
2023/04/02 00:41:02;;;;;;;20.65;15.10;;;;;;;5.55;100.00;101094.91;5012169;28;20419;-83
2023/04/02 00:43:34;;;;;;;22.83;15.30;;;;;;;5.59;100.00;101104.38;5012338;28;20029;-82
2023/04/02 00:46:03;;;;;;;23.08;16.33;;;;;;;5.46;100.00;101097.47;5012143;28;20421;-83
2023/04/02 00:48:32;;;;;;;23.15;16.50;;;;;;;5.51;100.00;101113.84;5012076;28;20494;-83
2023/04/02 00:51:10;;;;;;;23.10;15.40;;;;;;;5.45;100.00;101124.19;5012389;28;20026;-84
2023/04/02 00:53:37;;;;;;;21.00;14.63;;;;;;;5.40;100.00;101134.53;5011385;28;20041;-84
2023/04/02 00:56:15;;;;;;;20.83;15.07;;;;;;;5.34;100.00;101129.34;5011646;28;20030;-83
2023/04/02 00:58:42;;;;;;;21.75;14.82;;;;;;;5.29;100.00;101136.22;5012333;28;20026;-83
2023/04/02 01:01:17;;;;;;;20.58;15.20;;;;;;;5.31;100.00;101139.69;5011918;28;20520;-83
2023/04/02 01:03:52;;;;;;;20.77;15.88;;;;;;;5.25;100.00;101143.09;5012030;28;20026;-84
2023/04/02 01:06:19;;;;;;;20.10;14.50;;;;;;;5.30;100.00;101153.47;5012528;28;20018;-83
2023/04/02 01:09:22;;;;;;;19.88;14.65;;;;;;;5.29;100.00;101155.16;5011339;28;20022;-83
2023/04/02 01:12:23;;;;;;;20.52;14.38;;;;;;;5.29;100.00;101160.34;5011897;28;20030;-83
2023/04/02 01:15:10;;;;;;;21.52;15.02;;;;;;;5.29;100.00;101157.75;5012616;28;20026;-84
2023/04/02 01:17:53;;;;;;;22.98;15.73;;;;;;;5.28;100.00;101158.63;5002962;28;20036;-84
2023/04/02 01:20:36;;;;;;;23.90;15.82;;;;;;;5.31;100.00;101173.28;5016064;28;20025;-84
2023/04/02 01:23:09;;;;;;;21.85;14.77;;;;;;;5.33;100.00;101171.53;5016207;28;20077;-83
2023/04/02 01:25:37;;;;;;;25.13;16.20;;;;;;;5.34;100.00;101174.16;5015584;28;20032;-83
2023/04/02 01:28:18;;;;;;;24.15;15.90;;;;;;;5.28;100.00;101171.53;5015567;28;20108;-83
2023/04/02 01:30:47;;;;;;;25.63;16.85;;;;;;;5.25;100.00;101179.28;5015093;28;20022;-84
2023/04/02 01:33:13;;;;;;;21.83;15.07;;;;;;;5.19;100.00;101180.97;5015559;28;20084;-84
2023/04/02 01:35:45;;;;;;;21.35;14.57;;;;;;;5.18;100.00;101181.84;5014820;28;20030;-84
2023/04/02 01:38:17;;;;;;;19.70;14.00;;;;;;;5.13;100.00;101186.97;5015782;28;20026;-84
2023/04/02 01:40:57;;;;;;;20.50;14.32;;;;;;;5.07;100.00;101189.56;5017799;28;20037;-83
2023/04/02 01:43:39;;;;;;;20.98;14.90;;;;;;;5.11;100.00;101201.63;5015019;28;20044;-84
2023/04/02 01:46:23;;;;;;;19.73;13.23;;;;;;;5.12;100.00;101211.09;5015117;28;20021;-83
2023/04/02 01:48:49;;;;;;;27.13;18.25;;;;;;;5.05;100.00;101207.63;5014175;28;20429;-83
2023/04/02 01:51:32;;;;;;;26.33;17.45;;;;;;;4.67;100.00;101145.41;5075786;22;20054;-84
2023/04/02 01:54:29;;;;;;;26.27;18.80;;;;;;;5.07;100.00;101218.00;4976064;28;20031;-83
2023/04/02 01:57:08;;;;;;;24.75;18.85;;;;;;;4.86;100.00;101198.91;4963987;28;20043;-83
2023/04/02 02:06:22;;;;;;;25.55;16.75;;;;;;;4.71;100.00;101216.91;4975455;28;20510;-83
2023/04/02 02:08:51;;;;;;;22.35;14.93;;;;;;;4.83;100.00;101247.97;4995196;28;20444;-83
2023/04/02 02:14:15;;;;;;;22.95;14.68;;;;;;;4.78;100.00;101251.41;5265275;23;20057;-83
2023/04/02 02:16:56;;;;;;;19.35;13.88;;;;;;;4.61;100.00;101234.06;5014452;28;20026;-83
2023/04/02 02:19:38;;;;;;;20.45;14.05;;;;;;;4.75;100.00;101262.56;5002187;28;20474;-82
2023/04/02 02:22:07;;;;;;;19.02;13.32;;;;;;;4.73;100.00;101276.31;5013180;28;20040;-83
2023/04/02 02:24:35;;;;;;;17.80;13.48;;;;;;;4.68;100.00;101279.75;5012068;28;20104;-82
2023/04/02 02:27:35;;;;;;;17.48;11.93;;;;;;;4.62;100.00;101282.28;5013573;28;20038;-83
2023/04/02 02:30:13;;;;;;;18.15;12.40;;;;;;;4.63;100.00;101283.13;5014529;28;20049;-84
2023/04/02 02:32:48;;;;;;;19.05;12.32;;;;;;;4.61;100.00;101290.00;5013009;28;20300;-83
2023/04/02 02:35:22;;;;;;;18.05;11.77;;;;;;;4.59;100.00;101286.56;5013896;28;20502;-83
2023/04/02 02:37:55;;;;;;;16.15;10.85;;;;;;;4.63;100.00;101298.63;5012261;28;20109;-82
2023/04/02 02:40:26;;;;;;;14.45;10.00;;;;;;;4.64;100.00;101306.41;5013681;28;20040;-83
2023/04/02 02:42:56;;;;;;;13.73;10.48;;;;;;;4.55;100.00;101300.31;5013445;28;20030;-83
2023/04/02 02:45:26;;;;;;;14.05;9.75;;;;;;;4.51;100.00;101314.00;5012812;28;20037;-83
2023/04/02 02:47:54;;;;;;;12.63;9.27;;;;;;;4.41;100.00;101308.78;5013188;28;20033;-84
2023/04/02 02:50:24;;;;;;;14.18;9.93;;;;;;;4.47;100.00;101326.88;5012697;28;20026;-83
2023/04/02 02:52:53;;;;;;;12.75;9.75;;;;;;;4.44;100.00;101333.75;5012148;28;20045;-84
2023/04/02 02:55:28;;;;;;;10.93;8.88;;;;;;;4.40;100.00;101335.44;5012681;28;20026;-83
2023/04/02 02:58:07;;;;;;;11.63;8.32;;;;;;;4.49;100.00;101333.81;5010205;28;20061;-82
2023/04/02 03:00:34;;;;;;;12.55;8.55;;;;;;;4.42;100.00;101340.63;5012993;28;20073;-84
2023/04/02 03:03:05;;;;;;;14.95;9.48;;;;;;;4.44;100.00;101344.94;5013415;28;20037;-83
2023/04/02 03:05:31;;;;;;;14.98;10.63;;;;;;;4.45;100.00;101349.28;5013479;28;20029;-84
2023/04/02 03:07:58;;;;;;;16.33;11.23;;;;;;;4.47;100.00;101350.13;5011959;28;20366;-83
2023/04/02 03:10:55;;;;;;;14.38;10.80;;;;;;;4.54;100.00;101360.53;5012476;28;20026;-83
2023/04/02 03:13:38;;;;;;;17.92;12.30;;;;;;;4.57;100.00;101370.88;5011693;28;20125;-83
2023/04/02 03:16:15;;;;;;;16.75;11.98;;;;;;;4.57;100.00;101376.91;5011609;28;20033;-82
2023/04/02 03:18:58;;;;;;;15.90;12.38;;;;;;;4.56;100.00;101390.69;5010990;28;20447;-83
2023/04/02 03:21:35;;;;;;;17.90;12.85;;;;;;;4.55;100.00;101382.94;5011793;28;20022;-84
2023/04/02 03:24:10;;;;;;;16.83;12.90;;;;;;;4.57;100.00;101396.69;5011397;28;20073;-83
2023/04/02 03:26:45;;;;;;;21.05;13.77;;;;;;;4.57;100.00;101400.16;5011339;28;20083;-83
2023/04/02 03:29:30;;;;;;;18.27;14.15;;;;;;;4.60;100.00;101409.66;5010725;28;20417;-83
2023/04/02 03:32:02;;;;;;;19.63;13.82;;;;;;;4.57;100.00;101414.78;5009265;28;20112;-83
2023/04/02 03:34:33;;;;;;;19.57;13.60;;;;;;;4.56;100.00;101416.50;5011979;28;20037;-83
2023/04/02 03:37:05;;;;;;;19.70;13.77;;;;;;;4.57;100.00;101432.84;5011966;28;20373;-84
2023/04/02 03:39:39;;;;;;;19.38;13.70;;;;;;;4.53;100.00;101431.97;5012229;28;20105;-82
2023/04/02 03:42:13;;;;;;;17.98;12.65;;;;;;;4.52;100.00;101439.69;5011929;28;20057;-83
2023/04/02 03:44:48;;;;;;;20.27;13.05;;;;;;;4.50;100.00;101439.66;5012344;28;20025;-83
2023/04/02 03:47:48;;;;;;;17.15;12.18;;;;;;;4.51;100.00;101443.97;5004287;28;20026;-83
2023/04/02 03:50:24;;;;;;;18.70;13.25;;;;;;;4.50;100.00;101455.16;5001131;28;20034;-83
2023/04/02 03:52:50;;;;;;;19.65;13.60;;;;;;;4.51;100.00;101461.19;5011884;28;20021;-84
2023/04/02 03:55:16;;;;;;;19.48;13.80;;;;;;;4.52;100.00;101466.38;5012661;28;20076;-83
2023/04/02 03:57:54;;;;;;;19.48;13.02;;;;;;;4.42;100.00;101451.66;5011850;28;20441;-83
2023/04/02 04:00:21;;;;;;;18.65;13.82;;;;;;;4.48;100.00;101467.22;5012200;28;20108;-84
2023/04/02 04:02:56;;;;;;;16.90;11.27;;;;;;;4.49;100.00;101476.69;5011702;28;20026;-83
2023/04/02 04:05:29;;;;;;;18.85;11.68;;;;;;;4.41;100.00;101479.19;5011303;28;20548;-83
2023/04/02 04:08:00;;;;;;;20.30;11.50;;;;;;;4.25;100.00;101479.84;5012269;28;20041;-84
2023/04/02 04:10:27;;;;;;;16.00;11.20;;;;;;;4.31;100.00;101485.06;5011787;28;20343;-83
2023/04/02 04:12:56;;;;;;;16.45;11.60;;;;;;;4.31;100.00;101494.50;4966679;22;1061982;-83
2023/04/02 04:15:30;;;;;;;17.35;11.13;;;;;;;4.30;100.00;101500.53;4973753;28;20483;-83
2023/04/02 04:18:23;;;;;;;19.60;10.98;;;;;;;4.23;100.00;101499.59;4973291;28;20022;-83
2023/04/02 04:20:57;;;;;;;18.17;11.43;;;;;;;4.26;100.00;101515.13;4972700;28;20030;-83
2023/04/02 04:23:29;;;;;;;17.30;12.27;;;;;;;4.21;100.00;101506.44;4973738;28;20077;-83
2023/04/02 04:26:18;;;;;;;18.65;12.90;;;;;;;4.23;100.00;101530.56;4973650;28;20027;-84
2023/04/02 04:28:58;;;;;;;16.63;11.82;;;;;;;4.26;100.00;101532.31;4972802;28;20023;-84
2023/04/02 04:31:37;;;;;;;16.90;12.50;;;;;;;4.25;100.00;101536.63;4969895;28;20081;-84
2023/04/02 04:34:10;;;;;;;17.92;12.73;;;;;;;4.25;100.00;101541.78;4972803;28;20034;-84
2023/04/02 04:36:52;;;;;;;18.57;12.80;;;;;;;4.25;100.00;101548.63;4979259;28;20088;-84
2023/04/02 04:39:28;;;;;;;18.80;12.98;;;;;;;4.21;100.00;101558.91;4972426;28;20030;-83
2023/04/02 04:41:55;;;;;;;18.98;12.50;;;;;;;4.21;100.00;101569.25;4973425;28;20019;-83
2023/04/02 04:44:39;;;;;;;15.82;11.73;;;;;;;4.20;100.00;101574.41;4973692;28;20031;-84
2023/04/02 04:47:46;;;;;;;16.40;11.43;;;;;;;4.20;100.00;101574.41;4963850;28;20170;-84
2023/04/02 04:50:37;;;;;;;16.85;11.40;;;;;;;4.17;100.00;101579.50;4968181;28;20046;-83
2023/04/02 04:53:12;;;;;;;13.18;10.65;;;;;;;4.13;100.00;101588.91;4976884;28;20074;-84
2023/04/02 04:55:43;;;;;;;13.13;10.30;;;;;;;4.10;100.00;101595.75;4976126;28;20545;-84
2023/04/02 04:58:20;;;;;;;16.95;9.98;;;;;;;3.97;100.00;101584.38;4991136;28;20089;-83
2023/04/02 05:01:06;;;;;;;14.13;10.35;;;;;;;3.99;100.00;101599.03;4976641;28;20051;-84
2023/04/02 05:03:46;;;;;;;13.18;9.43;;;;;;;4.03;100.00;101610.28;4976802;28;20442;-84
2023/04/02 05:06:33;;;;;;;12.77;9.13;;;;;;;3.98;100.00;101599.88;4976494;28;20034;-84
2023/04/02 05:09:06;;;;;;;12.52;8.75;;;;;;;3.93;100.00;101614.41;4977131;28;20034;-84
2023/04/02 05:11:43;;;;;;;14.82;9.32;;;;;;;3.85;100.00;101621.16;4976240;28;20034;-84
2023/04/02 05:14:35;;;;;;;13.10;9.18;;;;;;;3.85;100.00;101638.34;4976263;28;20238;-85
2023/04/02 05:17:07;;;;;;;15.00;9.48;;;;;;;3.83;100.00;101619.41;4965872;28;20394;-84
2023/04/02 05:19:43;;;;;;;15.90;9.02;;;;;;;3.79;100.00;101633.94;4984529;28;20061;-84
2023/04/02 05:22:33;;;;;;;15.88;10.40;;;;;;;3.78;100.00;101626.19;4995371;28;20022;-84
2023/04/02 05:25:20;;;;;;;12.93;9.35;;;;;;;3.80;100.00;101645.16;4987436;28;20470;-84
2023/04/02 05:27:51;;;;;;;14.75;9.52;;;;;;;3.75;100.00;101648.50;4976469;28;20031;-83
2023/04/02 05:30:22;;;;;;;14.10;10.02;;;;;;;3.73;100.00;101649.34;4988476;28;20033;-84
2023/04/02 05:32:56;;;;;;;15.80;10.63;;;;;;;3.71;100.00;101656.16;4977184;28;20110;-84
2023/04/02 05:35:24;;;;;;;;;;;;;;;3.75;100.00;101666.56;4976972;28;20030;-84
2023/04/02 05:37:50;;;;;;;15.88;10.02;;;;;;;3.63;100.00;101655.16;4994409;28;19921;-85
2023/04/02 05:40:28;;;;;;;13.68;10.05;;;;;;;3.72;100.00;101675.94;4985558;28;20018;-84
2023/04/02 05:42:56;;;;;;;13.40;10.07;;;;;;;3.68;100.00;101656.09;4975770;28;20387;-84
2023/04/02 05:45:30;;;;;;;14.95;9.73;;;;;;;3.74;100.00;101674.28;4975265;28;20034;-84
2023/04/02 05:48:00;;;;;;;15.15;9.73;;;;;;;3.74;100.00;101682.88;4975433;28;20080;-84
2023/04/02 05:50:35;;;;;;;13.32;9.32;;;;;;;3.74;100.00;101694.91;4976285;28;20023;-85
2023/04/02 05:53:16;;;;;;;15.63;10.02;;;;;;;3.71;100.00;101690.56;4976082;28;20027;-85
2023/04/02 05:55:53;;;;;;;15.48;9.85;;;;;;;3.74;100.00;101700.06;4975042;28;20114;-82
2023/04/02 05:58:33;;;;;;;15.80;10.40;;;;;;;3.70;100.00;101703.44;4975480;28;20073;-84
2023/04/02 06:01:01;;;;;;;13.27;10.07;;;;;;;3.74;100.00;101703.50;4975883;28;20031;-84
2023/04/02 06:03:36;;;;;;;17.63;11.38;;;;;;;3.76;100.00;101724.19;4980420;28;20038;-85
2023/04/02 06:06:12;;;;;;;15.10;10.32;;;;;;;3.79;100.00;101723.34;4979062;28;20063;-84
2023/04/02 06:08:46;;;;;;;14.50;10.63;;;;;;;3.77;100.00;101719.91;4974703;28;20105;-84
2023/04/02 06:11:26;;;;;;;15.07;10.75;;;;;;;3.78;100.00;101714.75;4974232;28;20045;-84
2023/04/02 06:13:52;;;;;;;16.38;12.02;;;;;;;3.84;100.00;101727.75;4971416;28;20081;-85
2023/04/02 06:16:21;;;;;;;19.30;11.57;;;;;;;3.86;100.00;101736.41;4974295;28;20036;-86
2023/04/02 06:18:46;;;;;;;17.67;12.15;;;;;;;3.85;100.00;101750.13;4979187;28;20030;-87
2023/04/02 06:21:15;;;;;;;18.58;11.85;;;;;;;3.84;100.00;101760.44;4988084;28;20105;-86
2023/04/02 06:23:48;;;;;;;18.73;12.73;;;;;;;3.79;100.00;101762.91;4988861;28;20030;-80
2023/04/02 06:26:27;;;;;;;15.80;12.10;;;;;;;3.74;100.00;101767.13;4974671;28;20167;-82
2023/04/02 06:29:02;;;;;;;15.85;11.90;;;;;;;3.64;100.00;101766.06;4974290;28;20305;-83
2023/04/02 06:31:43;;;;;;;18.27;12.45;;;;;;;3.66;100.00;101778.97;4972581;28;20042;-83
2023/04/02 06:34:21;;;;;;;19.63;12.38;;;;;;;3.58;100.00;101780.56;4976073;28;20027;-83
2023/04/02 06:36:48;;;;;;;19.85;12.18;;;;;;;3.63;100.00;101786.66;4979042;28;20042;-83
2023/04/02 06:39:21;;;;;;;17.95;11.80;;;;;;;3.64;100.00;101793.56;4976344;28;20139;-82
2023/04/02 06:41:55;;;;;;;17.80;10.98;;;;;;;3.51;100.00;101785.59;4985420;28;20370;-82
2023/04/02 06:44:26;;;;;;;15.23;10.98;;;;;;;3.59;100.00;101802.91;4973778;28;20110;-83
2023/04/02 06:47:50;;;;;;;20.05;11.02;;;;;;;3.58;100.00;101811.50;4975306;28;20031;-82
2023/04/02 06:50:25;;;;;;;17.70;10.48;;;;;;;3.51;100.00;101795.91;4932814;29;20062;-82
2023/04/02 06:53:31;;;;;;;13.00;9.98;;;;;;;3.58;100.00;101816.66;4933102;29;20076;-80
2023/04/02 07:05:16;;;;;;;13.57;8.85;;;;;;;3.89;100.00;101849.09;5297393;23;20057;-81
2023/04/02 07:07:42;;;;;;;15.23;8.48;;;;;;;3.88;100.00;101850.78;4992346;28;20038;-81
2023/04/02 07:10:08;;;;;;;13.02;8.20;;;;;;;3.99;100.00;101869.09;4994503;28;20026;-81
2023/04/02 07:12:39;;;;;;;16.08;8.75;;;;;;;4.11;100.00;101889.09;4990418;28;20420;-81
2023/04/02 07:15:08;;;;;;;13.43;8.18;;;;;;;3.99;100.00;101869.09;4993636;28;20026;-81
2023/04/02 07:17:36;;;;;;;13.70;7.72;;;;;;;4.10;100.00;101887.34;4991752;28;20034;-81
2023/04/02 07:20:01;;;;;;;10.98;8.48;;;;;;;4.19;100.00;101890.13;4987837;28;20041;-81
2023/04/02 07:22:26;;;;;;;14.95;8.88;;;;;;;4.19;100.00;101879.81;4988627;28;20386;-82
2023/04/02 07:24:52;;;;;;;12.00;7.55;;;;;;;4.30;100.00;101893.78;4993262;28;20450;-80
2023/04/02 07:27:17;;;;;;;9.23;5.97;;;;;;;4.28;100.00;101890.28;4992631;28;20034;-81
2023/04/02 07:29:42;;;;;;;12.30;6.45;;;;;;;4.31;100.00;101907.53;4996696;28;20030;-81
2023/04/02 07:32:10;;;;;;;8.43;6.10;;;;;;;4.22;100.00;101913.41;4980366;28;20383;-82
2023/04/02 07:34:40;;;;;;;13.98;6.75;;;;;;;4.22;100.00;101926.31;4987853;28;20037;-83
2023/04/02 07:37:05;;;;;;;9.90;6.10;;;;;;;4.15;100.00;101927.03;4989137;28;20113;-83
2023/04/02 07:39:31;;;;;;;12.35;5.57;;;;;;;3.98;100.00;101919.81;4990751;28;20109;-83
2023/04/02 07:42:00;;;;;;;9.20;5.40;;;;;;;3.85;100.00;101916.94;4986455;28;20058;-83
2023/04/02 07:44:25;;;;;;;11.23;4.68;;;;;;;3.89;100.00;101942.84;4980077;28;20054;-83
2023/04/02 07:46:51;;;;;;;8.90;5.10;;;;;;;3.89;100.00;101939.38;4982181;28;20084;-82
2023/04/02 07:49:16;;;;;;;8.55;4.30;;;;;;;3.93;100.00;101942.06;4993223;28;20026;-84
2023/04/02 07:51:41;;;;;;;8.38;4.65;;;;;;;3.96;100.00;101941.28;4992537;28;20382;-83
2023/04/02 07:54:09;;;;;;;10.63;4.85;;;;;;;3.87;100.00;101946.22;4991968;28;20105;-84
2023/04/02 07:56:35;;;;;;;8.68;4.70;;;;;;;3.93;100.00;101954.09;4992068;28;20407;-83
2023/04/02 07:59:15;;;;;;;6.95;4.80;;;;;;;4.04;100.00;101951.75;4993622;28;20150;-83
2023/04/02 08:01:43;;;;;;;8.65;4.80;;;;;;;4.15;100.00;101965.72;4990008;28;20085;-83
2023/04/02 08:04:17;;;;;;;8.60;4.72;;;;;;;4.13;100.00;101978.63;4986765;28;20045;-83
2023/04/02 08:06:42;;;;;;;7.30;4.45;;;;;;;4.19;100.00;101983.03;4992592;28;20038;-83
2023/04/02 08:09:10;;;;;;;10.15;4.55;;;;;;;4.12;100.00;101963.97;4991684;28;20022;-84
2023/04/02 08:11:36;;;;;;;6.88;4.55;;;;;;;4.12;100.00;101978.56;4991768;28;20042;-83
2023/04/02 08:14:01;;;;;;;6.00;4.00;;;;;;;4.03;100.00;101970.66;4992595;28;20022;-82
2023/04/02 08:16:26;;;;;;;7.43;4.35;;;;;;;4.02;100.00;101979.22;4990302;28;20030;-84
2023/04/02 08:18:52;;;;;;;9.15;4.40;;;;;;;4.09;100.00;101988.84;4993025;28;20034;-84
2023/04/02 08:21:17;;;;;;;8.35;4.10;;;;;;;4.20;100.00;101989.94;4991621;28;20030;-83
2023/04/02 08:23:43;;;;;;;8.15;4.40;;;;;;;4.27;100.00;101988.34;4990620;28;20027;-84
2023/04/02 08:26:08;;;;;;;7.70;4.25;;;;;;;4.44;100.00;102000.75;4985113;28;20030;-84
2023/04/02 08:28:34;;;;;;;7.90;3.83;;;;;;;4.63;100.00;102001.13;4990885;28;20154;-82
2023/04/02 08:31:00;;;;;;;8.90;3.50;;;;;;;4.62;100.00;102002.84;4989149;28;20019;-84
2023/04/02 08:33:25;;;;;;;5.85;3.75;;;;;;;4.79;100.00;102023.84;4992277;28;20037;-83
2023/04/02 08:35:51;;;;;;;6.20;3.83;;;;;;;4.92;100.00;102030.97;4989101;28;20034;-83
2023/04/02 08:38:18;;;;;;;5.90;3.47;;;;;;;4.80;100.00;102017.81;4988941;28;20466;-83
2023/04/02 08:40:49;;;;;;;6.93;3.85;;;;;;;4.72;100.00;102026.28;4989514;28;20063;-84
2023/04/02 08:43:22;;;;;;;6.28;3.95;;;;;;;4.72;100.00;102031.44;4989801;28;20502;-82
2023/04/02 08:46:06;;;;;;;8.23;4.00;;;;;;;4.76;100.00;102051.31;4989162;28;20046;-84
2023/04/02 08:48:35;;;;;;;8.93;4.10;;;;;;;4.72;100.00;102042.66;4991667;28;20030;-83
2023/04/02 08:51:05;;;;;;;6.32;4.10;;;;;;;4.86;100.00;102051.53;4992211;28;20022;-83
2023/04/02 08:53:36;;;;;;;6.50;3.38;;;;;;;4.96;100.00;102057.75;4989194;28;20034;-84
2023/04/02 08:56:29;;;;;;;7.38;3.85;;;;;;;5.08;100.00;102049.38;4990688;28;20471;-82
2023/04/02 08:59:12;;;;;;;8.63;3.83;;;;;;;5.14;100.00;102065.84;4992021;28;20038;-83
2023/04/02 09:01:51;;;;;;;6.53;3.45;;;;;;;5.16;100.00;102073.63;4991508;28;20037;-82
2023/04/02 09:04:20;;;;;;;5.72;3.40;;;;;;;4.93;100.00;102089.56;4990093;28;20137;-83
2023/04/02 09:06:47;;;;;;;6.53;4.00;;;;;;;4.90;100.00;102089.53;4990336;28;20129;-84
2023/04/02 09:09:14;;;;;;;5.13;3.45;;;;;;;4.92;100.00;102084.38;4991047;28;20026;-84
2023/04/02 09:11:59;;;;;;;6.82;3.78;;;;;;;5.11;100.00;102094.25;4992335;28;20485;-83
2023/04/02 09:14:50;;;;;;;4.05;3.10;;;;;;;4.92;100.00;102093.00;4992582;28;20081;-84
2023/04/02 09:17:25;;;;;;;4.93;3.13;;;;;;;4.93;100.00;102107.66;4979578;28;20072;-83
2023/04/02 09:20:07;;;;;;;7.80;3.30;;;;;;;5.08;100.00;102107.09;4987340;28;20477;-84
2023/04/02 09:22:33;;;;;;;5.65;2.85;;;;;;;5.08;100.00;102119.16;4987388;28;20080;-84
2023/04/02 09:25:01;;;;;;;7.15;3.30;;;;;;;5.11;100.00;102114.91;4992785;28;20050;-83
2023/04/02 09:27:33;;;;;;;4.85;3.00;;;;;;;5.18;100.00;102115.03;4991121;28;20530;-84
2023/04/02 09:30:26;;;;;;;4.63;3.08;;;;;;;5.35;100.00;102134.31;4990023;28;20038;-83
2023/04/02 09:32:57;;;;;;;4.15;2.90;;;;;;;5.27;100.00;102134.19;4991598;28;20076;-83
2023/04/02 09:35:25;;;;;;;5.45;2.90;;;;;;;5.16;100.00;102148.59;4992403;28;20964;-83
2023/04/02 09:38:08;;;;;;;5.63;2.80;;;;;;;5.23;100.00;102140.16;4994190;28;20037;-82
2023/04/02 09:41:05;;;;;;;7.90;3.20;;;;;;;5.28;100.00;102143.69;4992690;28;20097;-84
2023/04/02 09:43:33;;;;;;;4.95;2.88;;;;;;;5.20;100.00;102150.44;4987704;28;20045;-82
2023/04/02 09:46:04;;;;;;;5.88;3.00;;;;;;;5.16;100.00;102151.19;4990249;28;20050;-83
2023/04/02 09:48:38;;;;;;;7.13;3.20;;;;;;;5.13;100.00;102161.47;4994869;28;20502;-83
2023/04/02 09:51:12;;;;;;;6.88;3.15;;;;;;;5.26;100.00;102158.28;4995936;28;20057;-84
2023/04/02 09:54:05;;;;;;;5.03;2.95;;;;;;;5.40;100.00;102155.97;4995033;28;20045;-83
2023/04/02 09:56:35;;;;;;;6.23;3.00;;;;;;;5.51;100.00;102171.69;4995323;28;20029;-83
2023/04/02 09:59:04;;;;;;;7.13;3.05;;;;;;;5.47;100.00;102168.19;4995849;28;20273;-83
2023/04/02 10:01:36;;;;;;;5.75;2.95;;;;;;;5.49;100.00;102168.19;4994906;28;20018;-84
2023/04/02 10:04:04;;;;;;;5.20;3.20;;;;;;;5.51;100.00;102182.91;4995513;28;20054;-83
2023/04/02 10:06:31;;;;;;;4.68;3.38;;;;;;;5.49;100.00;102188.88;4993692;28;20057;-84
2023/04/02 10:08:57;;;;;;;6.35;3.28;;;;;;;5.50;100.00;102185.47;4991322;28;20037;-83
2023/04/02 10:11:33;;;;;;;4.97;3.30;;;;;;;5.55;100.00;102194.16;4989310;28;20026;-84
2023/04/02 10:14:17;;;;;;;6.25;3.50;;;;;;;5.60;100.00;102189.97;4991402;28;20034;-84
2023/04/02 10:16:45;;;;;;;6.50;3.00;;;;;;;5.46;100.00;102197.47;4990851;28;20026;-84
2023/04/02 10:19:26;;;;;;;5.28;2.90;;;;;;;5.21;100.00;102183.19;4990085;28;20050;-83
2023/04/02 10:21:53;;;;;;;6.20;3.40;;;;;;;5.28;100.00;102200.56;4994590;28;20493;-84
2023/04/02 10:24:22;;;;;;;7.18;3.72;;;;;;;5.24;100.00;102213.41;4990967;28;20552;-83
2023/04/02 10:27:21;;;;;;;6.32;3.10;;;;;;;5.25;100.00;102215.16;4987953;28;20368;-84
2023/04/02 10:30:08;;;;;;;5.80;3.30;;;;;;;5.32;100.00;102222.19;4991240;28;20038;-84
2023/04/02 10:32:59;;;;;;;3.75;3.00;;;;;;;5.36;100.00;102227.47;4993107;28;20061;-82
2023/04/02 10:35:53;;;;;;;5.32;3.10;;;;;;;5.30;100.00;102234.22;4985504;28;20109;-85
2023/04/02 10:38:24;;;;;;;;;;;;;;;5.28;100.00;102235.91;4983862;28;20038;-85
2023/04/02 10:41:10;;;;;;;8.95;3.15;;;;;;;5.28;100.00;102247.09;4989634;28;20289;-84
2023/04/02 10:44:12;;;;;;;6.15;3.72;;;;;;;5.23;100.00;102259.09;4981959;28;20549;-83
2023/04/02 10:46:47;;;;;;;5.25;3.35;;;;;;;5.20;100.00;102248.69;4989020;28;20038;-83
2023/04/02 10:49:15;;;;;;;6.88;3.42;;;;;;;5.12;100.00;102250.22;4986184;28;20030;-84
2023/04/02 10:52:07;;;;;;;9.85;3.20;;;;;;;5.07;100.00;102252.72;4991795;28;20053;-81
2023/04/02 10:54:44;;;;;;;6.20;3.17;;;;;;;5.25;100.00;102246.16;4992466;28;20048;-79
2023/04/02 10:57:15;;;;;;;6.05;3.13;;;;;;;5.50;100.00;102252.72;4985770;28;20026;-82
2023/04/02 10:59:51;;;;;;;5.28;2.80;;;;;;;5.58;100.00;102259.78;4993139;28;20030;-80
2023/04/02 11:02:38;;;;;;;5.93;3.75;;;;;;;5.80;100.00;102257.63;4994781;28;20030;-80
2023/04/02 11:05:15;;;;;;;4.97;3.22;;;;;;;5.87;100.00;102249.97;4993717;28;20058;-82
2023/04/02 11:08:00;;;;;;;4.63;2.90;;;;;;;5.75;100.00;102267.00;4994345;28;20038;-84
2023/04/02 11:10:31;;;;;;;5.72;3.60;;;;;;;5.72;100.00;102282.47;4984729;28;20046;-85
2023/04/02 11:13:04;;;;;;;7.85;3.53;;;;;;;5.94;100.00;102273.44;4992248;28;20089;-85
2023/04/02 11:15:30;;;;;;;5.07;3.45;;;;;;;6.05;100.00;102284.88;4977988;28;20390;-84
2023/04/02 11:17:56;;;;;;;6.70;3.03;;;;;;;6.05;100.00;102292.63;4990601;28;20076;-77
2023/04/02 11:20:43;;;;;;;4.32;2.75;;;;;;;6.15;100.00;102293.66;4992177;28;20058;-78
2023/04/02 11:23:13;;;;;;;6.75;3.00;;;;;;;6.06;100.00;102300.41;4994281;28;20026;-78
2023/04/02 11:25:40;;;;;;;6.28;3.03;;;;;;;6.17;100.00;102302.31;4991831;28;20034;-78
2023/04/02 11:28:25;;;;;;;5.57;3.30;;;;;;;6.38;100.00;102309.63;4994018;28;20026;-77
2023/04/02 11:30:51;;;;;;;5.05;3.03;;;;;;;6.26;100.00;102303.38;4992794;28;20030;-78
2023/04/02 11:33:24;;;;;;;6.07;3.75;;;;;;;6.28;100.00;102304.28;4992538;28;20381;-78
2023/04/02 11:35:50;;;;;;;6.25;3.10;;;;;;;6.31;100.00;102309.50;4993512;28;20027;-77
2023/04/02 11:38:21;;;;;;;6.95;2.97;;;;;;;6.35;100.00;102322.53;4992859;28;20045;-78
2023/04/02 11:41:04;;;;;;;5.45;3.05;;;;;;;6.30;100.00;102315.50;4992926;28;20045;-77
2023/04/02 11:43:32;;;;;;;4.78;3.13;;;;;;;6.40;100.00;102320.88;4989177;28;20092;-78
2023/04/02 11:45:59;;;;;;;8.63;4.00;;;;;;;6.52;100.00;102318.50;4993200;28;20061;-78
2023/04/02 11:48:26;;;;;;;6.60;3.30;;;;;;;6.63;100.00;102319.53;4991025;28;20104;-78
2023/04/02 11:50:51;;;;;;;7.53;2.90;;;;;;;6.74;100.00;102325.78;4993459;28;20042;-78
2023/04/02 11:53:30;;;;;;;4.95;3.13;;;;;;;6.65;98.86;102327.34;4992355;28;20418;-78
2023/04/02 11:55:55;;;;;;;6.43;2.97;;;;;;;6.50;97.32;102330.53;4992566;28;20045;-78
2023/04/02 11:58:39;;;;;;;6.38;3.05;;;;;;;6.46;100.00;102332.19;4992051;28;20398;-78
2023/04/02 12:01:04;;;;;;;5.22;2.78;;;;;;;6.43;100.00;102339.06;4993147;28;20042;-78
2023/04/02 12:03:57;;;;;;;5.88;3.50;;;;;;;6.52;100.00;102347.00;4985080;28;20418;-78
2023/04/02 12:06:38;;;;;;;3.83;2.90;;;;;;;6.58;97.52;102344.50;4992343;28;20482;-78
2023/04/02 12:09:25;;;;;;;7.30;3.83;;;;;;;6.76;100.00;102359.47;4991364;28;20027;-78